sensor_id;sensor_type;location;lat;lon;timestamp;P1;durP1;ratioP1;P2;durP2;ratioP2
17079;SDS011;8655;57.106;-2.088;2023-04-03T00:01:29;2.87;;;1.20;;
17079;SDS011;8655;57.106;-2.088;2023-04-03T00:03:55;3.07;;;1.47;;
17079;SDS011;8655;57.106;-2.088;2023-04-03T00:06:21;2.00;;;1.13;;
17079;SDS011;8655;57.106;-2.088;2023-04-03T00:08:48;2.47;;;1.10;;
17079;SDS011;8655;57.106;-2.088;2023-04-03T00:11:13;2.37;;;1.20;;
17079;SDS011;8655;57.106;-2.088;2023-04-03T00:13:40;2.00;;;1.27;;
17079;SDS011;8655;57.106;-2.088;2023-04-03T00:16:07;2.67;;;1.20;;
17079;SDS011;8655;57.106;-2.088;2023-04-03T00:18:34;2.13;;;1.20;;
17079;SDS011;8655;57.106;-2.088;2023-04-03T00:21:00;1.67;;;1.03;;
17079;SDS011;8655;57.106;-2.088;2023-04-03T00:23:26;2.50;;;1.20;;
17079;SDS011;8655;57.106;-2.088;2023-04-03T00:25:52;2.30;;;1.30;;
17079;SDS011;8655;57.106;-2.088;2023-04-03T00:28:18;2.03;;;0.90;;
17079;SDS011;8655;57.106;-2.088;2023-04-03T00:30:44;2.10;;;1.30;;
17079;SDS011;8655;57.106;-2.088;2023-04-03T00:33:12;2.27;;;1.00;;
17079;SDS011;8655;57.106;-2.088;2023-04-03T00:35:38;2.27;;;1.03;;
17079;SDS011;8655;57.106;-2.088;2023-04-03T00:38:04;2.27;;;1.10;;
17079;SDS011;8655;57.106;-2.088;2023-04-03T00:40:33;2.80;;;1.30;;
17079;SDS011;8655;57.106;-2.088;2023-04-03T00:43:01;2.00;;;1.07;;
17079;SDS011;8655;57.106;-2.088;2023-04-03T00:47:59;2.90;;;1.27;;
17079;SDS011;8655;57.106;-2.088;2023-04-03T00:50:28;2.27;;;1.10;;
17079;SDS011;8655;57.106;-2.088;2023-04-03T00:52:55;2.40;;;1.20;;
17079;SDS011;8655;57.106;-2.088;2023-04-03T00:55:22;1.77;;;1.00;;
17079;SDS011;8655;57.106;-2.088;2023-04-03T00:57:48;3.57;;;1.20;;
17079;SDS011;8655;57.106;-2.088;2023-04-03T01:00:16;2.63;;;1.20;;
17079;SDS011;8655;57.106;-2.088;2023-04-03T01:02:44;1.83;;;1.00;;
17079;SDS011;8655;57.106;-2.088;2023-04-03T01:05:10;1.73;;;1.07;;
17079;SDS011;8655;57.106;-2.088;2023-04-03T01:07:37;2.87;;;1.27;;
17079;SDS011;8655;57.106;-2.088;2023-04-03T01:10:06;1.70;;;1.17;;
17079;SDS011;8655;57.106;-2.088;2023-04-03T01:12:37;2.03;;;1.00;;
17079;SDS011;8655;57.106;-2.088;2023-04-03T01:15:09;1.40;;;1.00;;
17079;SDS011;8655;57.106;-2.088;2023-04-03T01:25:35;2.27;;;1.13;;
17079;SDS011;8655;57.106;-2.088;2023-04-03T01:28:07;1.77;;;1.00;;
17079;SDS011;8655;57.106;-2.088;2023-04-03T01:33:39;1.67;;;0.90;;
17079;SDS011;8655;57.106;-2.088;2023-04-03T01:36:06;2.00;;;1.30;;
17079;SDS011;8655;57.106;-2.088;2023-04-03T01:38:32;3.97;;;1.40;;
17079;SDS011;8655;57.106;-2.088;2023-04-03T01:40:57;1.63;;;1.10;;
17079;SDS011;8655;57.106;-2.088;2023-04-03T01:43:23;2.57;;;1.20;;
17079;SDS011;8655;57.106;-2.088;2023-04-03T01:45:49;2.27;;;1.13;;
17079;SDS011;8655;57.106;-2.088;2023-04-03T01:48:15;2.10;;;1.20;;
17079;SDS011;8655;57.106;-2.088;2023-04-03T01:50:41;1.97;;;1.10;;
17079;SDS011;8655;57.106;-2.088;2023-04-03T01:53:07;2.47;;;1.07;;
17079;SDS011;8655;57.106;-2.088;2023-04-03T01:55:33;2.20;;;1.27;;
17079;SDS011;8655;57.106;-2.088;2023-04-03T01:57:58;4.67;;;1.40;;
17079;SDS011;8655;57.106;-2.088;2023-04-03T02:00:24;2.13;;;1.27;;
17079;SDS011;8655;57.106;-2.088;2023-04-03T02:02:50;1.97;;;1.10;;
17079;SDS011;8655;57.106;-2.088;2023-04-03T02:05:15;2.27;;;1.20;;
17079;SDS011;8655;57.106;-2.088;2023-04-03T02:07:41;3.10;;;1.40;;
17079;SDS011;8655;57.106;-2.088;2023-04-03T02:10:07;2.10;;;1.20;;
17079;SDS011;8655;57.106;-2.088;2023-04-03T02:12:33;2.17;;;1.10;;
17079;SDS011;8655;57.106;-2.088;2023-04-03T02:14:58;1.83;;;1.00;;
17079;SDS011;8655;57.106;-2.088;2023-04-03T02:17:24;1.97;;;0.90;;
17079;SDS011;8655;57.106;-2.088;2023-04-03T02:19:50;2.17;;;1.00;;
17079;SDS011;8655;57.106;-2.088;2023-04-03T02:22:15;1.50;;;0.80;;
17079;SDS011;8655;57.106;-2.088;2023-04-03T02:24:41;2.43;;;1.10;;
17079;SDS011;8655;57.106;-2.088;2023-04-03T02:27:07;1.97;;;1.03;;
17079;SDS011;8655;57.106;-2.088;2023-04-03T02:29:32;2.47;;;1.40;;
17079;SDS011;8655;57.106;-2.088;2023-04-03T02:31:58;3.00;;;1.37;;
17079;SDS011;8655;57.106;-2.088;2023-04-03T02:34:24;2.10;;;0.90;;
17079;SDS011;8655;57.106;-2.088;2023-04-03T02:36:49;2.80;;;1.30;;
17079;SDS011;8655;57.106;-2.088;2023-04-03T02:39:15;2.60;;;1.10;;
17079;SDS011;8655;57.106;-2.088;2023-04-03T02:41:41;1.77;;;0.93;;
17079;SDS011;8655;57.106;-2.088;2023-04-03T02:44:09;1.83;;;1.10;;
17079;SDS011;8655;57.106;-2.088;2023-04-03T02:46:35;3.00;;;1.40;;
17079;SDS011;8655;57.106;-2.088;2023-04-03T02:49:01;2.17;;;1.10;;
17079;SDS011;8655;57.106;-2.088;2023-04-03T02:51:27;1.80;;;1.03;;
17079;SDS011;8655;57.106;-2.088;2023-04-03T02:53:52;1.73;;;1.13;;
17079;SDS011;8655;57.106;-2.088;2023-04-03T02:56:18;1.97;;;1.20;;
17079;SDS011;8655;57.106;-2.088;2023-04-03T02:58:45;2.47;;;1.07;;
17079;SDS011;8655;57.106;-2.088;2023-04-03T03:01:10;1.93;;;1.03;;
17079;SDS011;8655;57.106;-2.088;2023-04-03T03:03:36;1.93;;;1.13;;
17079;SDS011;8655;57.106;-2.088;2023-04-03T03:08:32;1.40;;;0.90;;
17079;SDS011;8655;57.106;-2.088;2023-04-03T03:10:59;1.90;;;1.00;;
17079;SDS011;8655;57.106;-2.088;2023-04-03T03:13:25;1.33;;;1.00;;
17079;SDS011;8655;57.106;-2.088;2023-04-03T03:15:51;3.13;;;1.30;;
17079;SDS011;8655;57.106;-2.088;2023-04-03T03:18:16;2.60;;;1.17;;
17079;SDS011;8655;57.106;-2.088;2023-04-03T03:20:42;1.53;;;1.00;;
17079;SDS011;8655;57.106;-2.088;2023-04-03T03:23:08;2.07;;;1.00;;
17079;SDS011;8655;57.106;-2.088;2023-04-03T03:25:37;1.80;;;1.10;;
17079;SDS011;8655;57.106;-2.088;2023-04-03T03:28:04;3.43;;;1.10;;
17079;SDS011;8655;57.106;-2.088;2023-04-03T03:30:30;2.17;;;1.30;;
17079;SDS011;8655;57.106;-2.088;2023-04-03T03:32:55;2.60;;;1.07;;
17079;SDS011;8655;57.106;-2.088;2023-04-03T03:35:21;1.67;;;0.90;;
17079;SDS011;8655;57.106;-2.088;2023-04-03T03:37:47;1.90;;;0.90;;
17079;SDS011;8655;57.106;-2.088;2023-04-03T03:40:12;1.97;;;1.10;;
17079;SDS011;8655;57.106;-2.088;2023-04-03T03:42:38;2.30;;;1.10;;
17079;SDS011;8655;57.106;-2.088;2023-04-03T03:45:04;2.83;;;1.10;;
17079;SDS011;8655;57.106;-2.088;2023-04-03T03:47:31;2.47;;;1.20;;
17079;SDS011;8655;57.106;-2.088;2023-04-03T03:49:56;2.93;;;1.20;;
17079;SDS011;8655;57.106;-2.088;2023-04-03T03:52:22;2.83;;;1.23;;
17079;SDS011;8655;57.106;-2.088;2023-04-03T03:54:48;2.23;;;1.20;;
17079;SDS011;8655;57.106;-2.088;2023-04-03T03:57:13;2.53;;;1.13;;
17079;SDS011;8655;57.106;-2.088;2023-04-03T03:59:40;2.43;;;1.13;;
17079;SDS011;8655;57.106;-2.088;2023-04-03T04:02:06;2.17;;;1.20;;
17079;SDS011;8655;57.106;-2.088;2023-04-03T04:04:33;2.63;;;1.10;;
17079;SDS011;8655;57.106;-2.088;2023-04-03T04:06:58;1.80;;;0.97;;
17079;SDS011;8655;57.106;-2.088;2023-04-03T04:09:25;1.90;;;1.00;;
17079;SDS011;8655;57.106;-2.088;2023-04-03T04:11:51;1.63;;;1.20;;
17079;SDS011;8655;57.106;-2.088;2023-04-03T04:14:17;1.17;;;1.00;;
17079;SDS011;8655;57.106;-2.088;2023-04-03T04:16:45;2.87;;;1.17;;
17079;SDS011;8655;57.106;-2.088;2023-04-03T04:19:11;1.83;;;1.10;;
17079;SDS011;8655;57.106;-2.088;2023-04-03T04:21:37;3.07;;;1.20;;
17079;SDS011;8655;57.106;-2.088;2023-04-03T04:24:03;3.27;;;1.30;;
17079;SDS011;8655;57.106;-2.088;2023-04-03T04:26:29;1.50;;;0.90;;
17079;SDS011;8655;57.106;-2.088;2023-04-03T04:28:54;2.40;;;1.30;;
17079;SDS011;8655;57.106;-2.088;2023-04-03T04:31:20;2.40;;;1.07;;
17079;SDS011;8655;57.106;-2.088;2023-04-03T04:33:46;2.00;;;1.30;;
17079;SDS011;8655;57.106;-2.088;2023-04-03T04:36:11;2.93;;;1.17;;
17079;SDS011;8655;57.106;-2.088;2023-04-03T04:38:37;3.13;;;1.30;;
17079;SDS011;8655;57.106;-2.088;2023-04-03T04:41:03;2.07;;;1.13;;
17079;SDS011;8655;57.106;-2.088;2023-04-03T04:43:29;1.70;;;1.10;;
17079;SDS011;8655;57.106;-2.088;2023-04-03T04:46:05;2.43;;;1.30;;
17079;SDS011;8655;57.106;-2.088;2023-04-03T04:48:37;2.40;;;1.30;;
17079;SDS011;8655;57.106;-2.088;2023-04-03T04:51:03;1.87;;;1.10;;
17079;SDS011;8655;57.106;-2.088;2023-04-03T04:53:29;1.60;;;1.10;;
17079;SDS011;8655;57.106;-2.088;2023-04-03T04:55:55;3.60;;;1.10;;
17079;SDS011;8655;57.106;-2.088;2023-04-03T04:58:20;2.37;;;1.10;;
17079;SDS011;8655;57.106;-2.088;2023-04-03T05:00:46;2.50;;;1.20;;
17079;SDS011;8655;57.106;-2.088;2023-04-03T05:03:12;2.53;;;1.00;;
17079;SDS011;8655;57.106;-2.088;2023-04-03T05:05:38;2.40;;;1.20;;
17079;SDS011;8655;57.106;-2.088;2023-04-03T05:08:04;2.03;;;0.93;;
17079;SDS011;8655;57.106;-2.088;2023-04-03T05:10:30;2.20;;;1.17;;
17079;SDS011;8655;57.106;-2.088;2023-04-03T05:12:56;2.33;;;1.13;;
17079;SDS011;8655;57.106;-2.088;2023-04-03T05:15:22;1.93;;;1.20;;
17079;SDS011;8655;57.106;-2.088;2023-04-03T05:17:48;2.53;;;1.20;;
17079;SDS011;8655;57.106;-2.088;2023-04-03T05:20:15;2.73;;;1.20;;
17079;SDS011;8655;57.106;-2.088;2023-04-03T05:22:41;1.97;;;1.30;;
17079;SDS011;8655;57.106;-2.088;2023-04-03T05:25:06;2.03;;;1.17;;
17079;SDS011;8655;57.106;-2.088;2023-04-03T05:27:33;2.70;;;1.40;;
17079;SDS011;8655;57.106;-2.088;2023-04-03T05:29:58;2.83;;;1.30;;
17079;SDS011;8655;57.106;-2.088;2023-04-03T05:32:24;1.83;;;1.13;;
17079;SDS011;8655;57.106;-2.088;2023-04-03T05:34:52;1.53;;;1.20;;
17079;SDS011;8655;57.106;-2.088;2023-04-03T05:37:18;1.97;;;1.20;;
17079;SDS011;8655;57.106;-2.088;2023-04-03T05:39:43;2.57;;;1.20;;
17079;SDS011;8655;57.106;-2.088;2023-04-03T05:42:09;2.30;;;1.00;;
17079;SDS011;8655;57.106;-2.088;2023-04-03T05:44:36;2.13;;;1.17;;
17079;SDS011;8655;57.106;-2.088;2023-04-03T05:47:02;3.23;;;1.30;;
17079;SDS011;8655;57.106;-2.088;2023-04-03T05:49:28;2.63;;;0.97;;
17079;SDS011;8655;57.106;-2.088;2023-04-03T05:51:54;2.40;;;1.07;;
17079;SDS011;8655;57.106;-2.088;2023-04-03T05:54:22;2.43;;;1.00;;
17079;SDS011;8655;57.106;-2.088;2023-04-03T05:56:50;2.30;;;1.13;;
17079;SDS011;8655;57.106;-2.088;2023-04-03T05:59:16;2.40;;;1.20;;
17079;SDS011;8655;57.106;-2.088;2023-04-03T06:01:43;2.40;;;1.20;;
17079;SDS011;8655;57.106;-2.088;2023-04-03T06:04:09;1.67;;;1.00;;
17079;SDS011;8655;57.106;-2.088;2023-04-03T06:09:11;3.00;;;1.30;;
17079;SDS011;8655;57.106;-2.088;2023-04-03T06:11:37;1.60;;;1.03;;
17079;SDS011;8655;57.106;-2.088;2023-04-03T06:14:02;2.80;;;1.17;;
17079;SDS011;8655;57.106;-2.088;2023-04-03T06:16:28;2.27;;;0.93;;
17079;SDS011;8655;57.106;-2.088;2023-04-03T06:18:54;2.27;;;1.23;;
17079;SDS011;8655;57.106;-2.088;2023-04-03T06:21:21;1.83;;;1.10;;
17079;SDS011;8655;57.106;-2.088;2023-04-03T06:23:46;1.30;;;0.97;;
17079;SDS011;8655;57.106;-2.088;2023-04-03T06:26:12;1.53;;;1.03;;
17079;SDS011;8655;57.106;-2.088;2023-04-03T06:28:38;2.90;;;1.10;;
17079;SDS011;8655;57.106;-2.088;2023-04-03T06:31:03;2.80;;;1.03;;
17079;SDS011;8655;57.106;-2.088;2023-04-03T06:33:29;3.03;;;1.20;;
17079;SDS011;8655;57.106;-2.088;2023-04-03T06:35:55;2.90;;;1.20;;
17079;SDS011;8655;57.106;-2.088;2023-04-03T06:38:24;1.90;;;1.20;;
17079;SDS011;8655;57.106;-2.088;2023-04-03T06:40:51;3.33;;;1.57;;
17079;SDS011;8655;57.106;-2.088;2023-04-03T06:43:18;4.57;;;1.43;;
17079;SDS011;8655;57.106;-2.088;2023-04-03T06:45:43;2.03;;;1.10;;
17079;SDS011;8655;57.106;-2.088;2023-04-03T06:48:09;3.17;;;1.43;;
17079;SDS011;8655;57.106;-2.088;2023-04-03T06:50:35;2.57;;;1.40;;
17079;SDS011;8655;57.106;-2.088;2023-04-03T06:53:01;2.50;;;1.20;;
17079;SDS011;8655;57.106;-2.088;2023-04-03T06:55:27;1.90;;;1.10;;
17079;SDS011;8655;57.106;-2.088;2023-04-03T06:57:53;2.03;;;1.00;;
17079;SDS011;8655;57.106;-2.088;2023-04-03T07:00:18;2.50;;;1.20;;
17079;SDS011;8655;57.106;-2.088;2023-04-03T07:02:44;4.27;;;1.10;;
17079;SDS011;8655;57.106;-2.088;2023-04-03T07:05:10;2.03;;;1.27;;
17079;SDS011;8655;57.106;-2.088;2023-04-03T07:07:36;1.87;;;1.20;;
17079;SDS011;8655;57.106;-2.088;2023-04-03T07:10:03;2.83;;;1.30;;
17079;SDS011;8655;57.106;-2.088;2023-04-03T07:12:30;3.23;;;1.20;;
17079;SDS011;8655;57.106;-2.088;2023-04-03T07:14:56;3.17;;;1.23;;
17079;SDS011;8655;57.106;-2.088;2023-04-03T07:17:21;3.37;;;1.30;;
17079;SDS011;8655;57.106;-2.088;2023-04-03T07:19:47;2.87;;;1.40;;
17079;SDS011;8655;57.106;-2.088;2023-04-03T07:22:12;1.83;;;1.00;;
17079;SDS011;8655;57.106;-2.088;2023-04-03T07:24:38;2.63;;;1.53;;
17079;SDS011;8655;57.106;-2.088;2023-04-03T07:27:04;3.03;;;1.20;;
17079;SDS011;8655;57.106;-2.088;2023-04-03T07:29:30;3.67;;;1.20;;
17079;SDS011;8655;57.106;-2.088;2023-04-03T07:31:56;1.93;;;1.20;;
17079;SDS011;8655;57.106;-2.088;2023-04-03T07:34:22;1.80;;;1.13;;
17079;SDS011;8655;57.106;-2.088;2023-04-03T07:36:47;2.60;;;1.37;;
17079;SDS011;8655;57.106;-2.088;2023-04-03T07:39:13;2.30;;;1.20;;
17079;SDS011;8655;57.106;-2.088;2023-04-03T07:41:39;1.77;;;1.00;;
17079;SDS011;8655;57.106;-2.088;2023-04-03T07:44:05;2.40;;;1.10;;
17079;SDS011;8655;57.106;-2.088;2023-04-03T07:46:31;2.70;;;1.33;;
17079;SDS011;8655;57.106;-2.088;2023-04-03T07:48:56;2.37;;;1.20;;
17079;SDS011;8655;57.106;-2.088;2023-04-03T07:51:22;2.70;;;1.50;;
17079;SDS011;8655;57.106;-2.088;2023-04-03T07:53:49;2.97;;;1.10;;
17079;SDS011;8655;57.106;-2.088;2023-04-03T07:56:16;2.33;;;1.30;;
17079;SDS011;8655;57.106;-2.088;2023-04-03T07:58:42;2.53;;;1.30;;
17079;SDS011;8655;57.106;-2.088;2023-04-03T08:01:07;2.70;;;1.10;;
17079;SDS011;8655;57.106;-2.088;2023-04-03T08:03:33;2.27;;;1.30;;
17079;SDS011;8655;57.106;-2.088;2023-04-03T08:06:05;2.73;;;1.30;;
17079;SDS011;8655;57.106;-2.088;2023-04-03T08:08:32;2.07;;;1.30;;
17079;SDS011;8655;57.106;-2.088;2023-04-03T08:10:59;2.13;;;1.27;;
17079;SDS011;8655;57.106;-2.088;2023-04-03T08:13:27;1.90;;;1.20;;
17079;SDS011;8655;57.106;-2.088;2023-04-03T08:15:53;2.43;;;1.40;;
17079;SDS011;8655;57.106;-2.088;2023-04-03T08:18:20;3.10;;;1.37;;
17079;SDS011;8655;57.106;-2.088;2023-04-03T08:20:49;4.23;;;1.30;;
17079;SDS011;8655;57.106;-2.088;2023-04-03T08:23:16;3.60;;;1.30;;
17079;SDS011;8655;57.106;-2.088;2023-04-03T08:25:43;3.23;;;1.20;;
17079;SDS011;8655;57.106;-2.088;2023-04-03T08:28:10;2.20;;;1.20;;
17079;SDS011;8655;57.106;-2.088;2023-04-03T08:30:38;2.40;;;1.50;;
17079;SDS011;8655;57.106;-2.088;2023-04-03T08:33:05;1.87;;;1.37;;
17079;SDS011;8655;57.106;-2.088;2023-04-03T08:35:31;2.73;;;1.50;;
17079;SDS011;8655;57.106;-2.088;2023-04-03T08:37:56;1.83;;;1.20;;
17079;SDS011;8655;57.106;-2.088;2023-04-03T08:40:22;2.33;;;1.40;;
17079;SDS011;8655;57.106;-2.088;2023-04-03T08:45:44;1.93;;;1.20;;
17079;SDS011;8655;57.106;-2.088;2023-04-03T08:48:29;2.30;;;1.30;;
17079;SDS011;8655;57.106;-2.088;2023-04-03T08:51:04;2.40;;;1.37;;
17079;SDS011;8655;57.106;-2.088;2023-04-03T08:53:40;2.73;;;1.30;;
17079;SDS011;8655;57.106;-2.088;2023-04-03T08:56:10;2.53;;;1.20;;
17079;SDS011;8655;57.106;-2.088;2023-04-03T08:58:59;1.93;;;1.27;;
17079;SDS011;8655;57.106;-2.088;2023-04-03T09:04:02;2.67;;;1.33;;
17079;SDS011;8655;57.106;-2.088;2023-04-03T09:06:38;2.87;;;1.20;;
17079;SDS011;8655;57.106;-2.088;2023-04-03T09:22:38;3.40;;;1.20;;
17079;SDS011;8655;57.106;-2.088;2023-04-03T09:25:15;4.10;;;1.80;;
17079;SDS011;8655;57.106;-2.088;2023-04-03T09:27:45;2.70;;;1.40;;
17079;SDS011;8655;57.106;-2.088;2023-04-03T09:30:12;1.53;;;1.30;;
17079;SDS011;8655;57.106;-2.088;2023-04-03T09:32:40;2.87;;;1.20;;
17079;SDS011;8655;57.106;-2.088;2023-04-03T09:35:19;2.80;;;1.40;;
17079;SDS011;8655;57.106;-2.088;2023-04-03T09:38:00;2.57;;;1.50;;
17079;SDS011;8655;57.106;-2.088;2023-04-03T09:40:36;4.43;;;1.27;;
17079;SDS011;8655;57.106;-2.088;2023-04-03T09:45:48;3.10;;;1.50;;
17079;SDS011;8655;57.106;-2.088;2023-04-03T09:48:16;2.80;;;1.40;;
17079;SDS011;8655;57.106;-2.088;2023-04-03T09:56:02;4.33;;;1.70;;
17079;SDS011;8655;57.106;-2.088;2023-04-03T09:58:40;5.50;;;1.60;;
17079;SDS011;8655;57.106;-2.088;2023-04-03T10:01:27;2.37;;;1.50;;
17079;SDS011;8655;57.106;-2.088;2023-04-03T10:06:37;2.13;;;1.27;;
17079;SDS011;8655;57.106;-2.088;2023-04-03T10:14:30;3.70;;;1.60;;
17079;SDS011;8655;57.106;-2.088;2023-04-03T10:22:19;3.93;;;1.63;;
17079;SDS011;8655;57.106;-2.088;2023-04-03T10:27:56;4.37;;;1.60;;
17079;SDS011;8655;57.106;-2.088;2023-04-03T10:36:21;4.97;;;1.60;;
17079;SDS011;8655;57.106;-2.088;2023-04-03T10:45:24;2.53;;;1.50;;
17079;SDS011;8655;57.106;-2.088;2023-04-03T10:59:01;5.60;;;1.80;;
17079;SDS011;8655;57.106;-2.088;2023-04-03T11:01:32;2.80;;;1.50;;
17079;SDS011;8655;57.106;-2.088;2023-04-03T11:04:03;3.10;;;1.53;;
17079;SDS011;8655;57.106;-2.088;2023-04-03T11:06:34;2.80;;;1.50;;
17079;SDS011;8655;57.106;-2.088;2023-04-03T11:11:48;3.93;;;1.83;;
17079;SDS011;8655;57.106;-2.088;2023-04-03T11:14:26;3.80;;;1.70;;
17079;SDS011;8655;57.106;-2.088;2023-04-03T11:17:04;2.90;;;1.53;;
17079;SDS011;8655;57.106;-2.088;2023-04-03T11:22:28;3.60;;;1.50;;
17079;SDS011;8655;57.106;-2.088;2023-04-03T11:27:43;4.17;;;1.57;;
17079;SDS011;8655;57.106;-2.088;2023-04-03T11:30:18;3.47;;;1.67;;
17079;SDS011;8655;57.106;-2.088;2023-04-03T11:35:59;4.03;;;1.40;;
17079;SDS011;8655;57.106;-2.088;2023-04-03T11:38:36;2.23;;;1.43;;
17079;SDS011;8655;57.106;-2.088;2023-04-03T11:41:06;5.83;;;1.73;;
17079;SDS011;8655;57.106;-2.088;2023-04-03T11:43:36;3.17;;;1.60;;
17079;SDS011;8655;57.106;-2.088;2023-04-03T11:46:21;3.13;;;1.47;;
17079;SDS011;8655;57.106;-2.088;2023-04-03T11:48:47;3.37;;;1.53;;
17079;SDS011;8655;57.106;-2.088;2023-04-03T11:53:53;3.23;;;1.50;;
17079;SDS011;8655;57.106;-2.088;2023-04-03T12:01:51;2.63;;;1.40;;
17079;SDS011;8655;57.106;-2.088;2023-04-03T12:04:22;4.17;;;1.73;;
17079;SDS011;8655;57.106;-2.088;2023-04-03T12:14:55;3.33;;;1.57;;
17079;SDS011;8655;57.106;-2.088;2023-04-03T12:17:36;2.57;;;1.47;;
17079;SDS011;8655;57.106;-2.088;2023-04-03T12:20:13;3.63;;;1.57;;
17079;SDS011;8655;57.106;-2.088;2023-04-03T12:23:30;4.13;;;1.67;;
17079;SDS011;8655;57.106;-2.088;2023-04-03T12:25:59;3.17;;;1.80;;
17079;SDS011;8655;57.106;-2.088;2023-04-03T12:28:29;2.53;;;1.60;;
17079;SDS011;8655;57.106;-2.088;2023-04-03T12:31:01;4.27;;;1.70;;
17079;SDS011;8655;57.106;-2.088;2023-04-03T12:36:23;2.73;;;1.50;;
17079;SDS011;8655;57.106;-2.088;2023-04-03T12:45:22;5.20;;;1.63;;
17079;SDS011;8655;57.106;-2.088;2023-04-03T12:47:49;3.17;;;1.60;;
17079;SDS011;8655;57.106;-2.088;2023-04-03T12:50:27;2.57;;;1.47;;
17079;SDS011;8655;57.106;-2.088;2023-04-03T12:58:48;3.10;;;1.60;;
17079;SDS011;8655;57.106;-2.088;2023-04-03T13:01:19;8.50;;;1.90;;
17079;SDS011;8655;57.106;-2.088;2023-04-03T13:03:49;2.70;;;1.50;;
17079;SDS011;8655;57.106;-2.088;2023-04-03T13:06:28;5.10;;;1.90;;
17079;SDS011;8655;57.106;-2.088;2023-04-03T13:08:58;4.30;;;1.73;;
17079;SDS011;8655;57.106;-2.088;2023-04-03T13:11:27;3.83;;;1.60;;
17079;SDS011;8655;57.106;-2.088;2023-04-03T13:13:59;3.40;;;1.47;;
17079;SDS011;8655;57.106;-2.088;2023-04-03T13:16:28;3.83;;;1.70;;
17079;SDS011;8655;57.106;-2.088;2023-04-03T13:18:54;2.30;;;1.40;;
17079;SDS011;8655;57.106;-2.088;2023-04-03T13:21:24;3.17;;;1.63;;
17079;SDS011;8655;57.106;-2.088;2023-04-03T13:23:53;4.60;;;1.73;;
17079;SDS011;8655;57.106;-2.088;2023-04-03T13:26:22;3.70;;;1.50;;
17079;SDS011;8655;57.106;-2.088;2023-04-03T13:28:51;3.77;;;1.60;;
17079;SDS011;8655;57.106;-2.088;2023-04-03T13:31:25;4.53;;;1.60;;
17079;SDS011;8655;57.106;-2.088;2023-04-03T13:33:55;3.07;;;1.47;;
17079;SDS011;8655;57.106;-2.088;2023-04-03T13:36:23;3.77;;;1.53;;
17079;SDS011;8655;57.106;-2.088;2023-04-03T13:39:06;3.40;;;1.50;;
17079;SDS011;8655;57.106;-2.088;2023-04-03T13:41:44;4.10;;;1.70;;
17079;SDS011;8655;57.106;-2.088;2023-04-03T13:45:05;3.90;;;1.50;;
17079;SDS011;8655;57.106;-2.088;2023-04-03T13:50:01;2.93;;;1.60;;
17079;SDS011;8655;57.106;-2.088;2023-04-03T13:53:18;5.03;;;1.70;;
17079;SDS011;8655;57.106;-2.088;2023-04-03T13:55:36;3.37;;;1.90;;
17079;SDS011;8655;57.106;-2.088;2023-04-03T13:58:27;3.87;;;1.70;;
17079;SDS011;8655;57.106;-2.088;2023-04-03T14:00:55;4.10;;;1.47;;
17079;SDS011;8655;57.106;-2.088;2023-04-03T14:03:51;2.77;;;1.20;;
17079;SDS011;8655;57.106;-2.088;2023-04-03T14:06:22;3.60;;;1.80;;
17079;SDS011;8655;57.106;-2.088;2023-04-03T14:08:49;3.33;;;1.50;;
17079;SDS011;8655;57.106;-2.088;2023-04-03T14:11:16;3.50;;;1.70;;
17079;SDS011;8655;57.106;-2.088;2023-04-03T14:13:44;4.10;;;1.87;;
17079;SDS011;8655;57.106;-2.088;2023-04-03T14:16:12;3.63;;;1.50;;
17079;SDS011;8655;57.106;-2.088;2023-04-03T14:18:41;3.90;;;1.57;;
17079;SDS011;8655;57.106;-2.088;2023-04-03T14:21:10;2.57;;;1.53;;
17079;SDS011;8655;57.106;-2.088;2023-04-03T14:23:38;4.43;;;1.67;;
17079;SDS011;8655;57.106;-2.088;2023-04-03T14:26:08;5.27;;;1.77;;
17079;SDS011;8655;57.106;-2.088;2023-04-03T14:28:36;5.07;;;1.50;;
17079;SDS011;8655;57.106;-2.088;2023-04-03T14:31:02;3.53;;;1.70;;
17079;SDS011;8655;57.106;-2.088;2023-04-03T14:33:28;3.43;;;1.50;;
17079;SDS011;8655;57.106;-2.088;2023-04-03T14:35:56;3.80;;;1.50;;
17079;SDS011;8655;57.106;-2.088;2023-04-03T14:40:52;3.13;;;1.53;;
17079;SDS011;8655;57.106;-2.088;2023-04-03T14:43:18;3.70;;;1.50;;
17079;SDS011;8655;57.106;-2.088;2023-04-03T14:45:45;3.73;;;1.63;;
17079;SDS011;8655;57.106;-2.088;2023-04-03T14:48:22;3.53;;;1.70;;
17079;SDS011;8655;57.106;-2.088;2023-04-03T14:50:49;5.13;;;1.90;;
17079;SDS011;8655;57.106;-2.088;2023-04-03T14:53:16;4.00;;;1.47;;
17079;SDS011;8655;57.106;-2.088;2023-04-03T14:55:46;4.17;;;1.60;;
17079;SDS011;8655;57.106;-2.088;2023-04-03T14:58:16;3.43;;;1.70;;
17079;SDS011;8655;57.106;-2.088;2023-04-03T15:00:44;3.77;;;1.47;;
17079;SDS011;8655;57.106;-2.088;2023-04-03T15:03:13;3.60;;;1.50;;
17079;SDS011;8655;57.106;-2.088;2023-04-03T15:05:44;4.53;;;1.60;;
17079;SDS011;8655;57.106;-2.088;2023-04-03T15:08:24;4.53;;;1.30;;
17079;SDS011;8655;57.106;-2.088;2023-04-03T15:10:51;5.27;;;1.83;;
17079;SDS011;8655;57.106;-2.088;2023-04-03T15:13:18;2.87;;;1.47;;
17079;SDS011;8655;57.106;-2.088;2023-04-03T15:15:45;5.57;;;1.77;;
17079;SDS011;8655;57.106;-2.088;2023-04-03T15:18:14;3.10;;;1.43;;
17079;SDS011;8655;57.106;-2.088;2023-04-03T15:20:43;4.53;;;1.53;;
17079;SDS011;8655;57.106;-2.088;2023-04-03T15:23:10;5.80;;;1.60;;
17079;SDS011;8655;57.106;-2.088;2023-04-03T15:25:38;4.90;;;1.77;;
17079;SDS011;8655;57.106;-2.088;2023-04-03T15:28:04;3.13;;;1.47;;
17079;SDS011;8655;57.106;-2.088;2023-04-03T15:30:31;5.03;;;1.70;;
17079;SDS011;8655;57.106;-2.088;2023-04-03T15:32:56;4.67;;;1.63;;
17079;SDS011;8655;57.106;-2.088;2023-04-03T15:35:22;3.00;;;1.53;;
17079;SDS011;8655;57.106;-2.088;2023-04-03T15:37:48;3.07;;;1.50;;
17079;SDS011;8655;57.106;-2.088;2023-04-03T15:40:14;4.87;;;1.67;;
17079;SDS011;8655;57.106;-2.088;2023-04-03T15:42:40;3.37;;;1.60;;
17079;SDS011;8655;57.106;-2.088;2023-04-03T15:45:06;4.60;;;1.37;;
17079;SDS011;8655;57.106;-2.088;2023-04-03T15:47:32;3.40;;;1.53;;
17079;SDS011;8655;57.106;-2.088;2023-04-03T15:49:58;4.00;;;1.57;;
17079;SDS011;8655;57.106;-2.088;2023-04-03T15:52:24;2.83;;;1.40;;
17079;SDS011;8655;57.106;-2.088;2023-04-03T15:54:50;4.30;;;1.60;;
17079;SDS011;8655;57.106;-2.088;2023-04-03T15:57:15;4.03;;;1.40;;
17079;SDS011;8655;57.106;-2.088;2023-04-03T15:59:41;4.50;;;1.73;;
17079;SDS011;8655;57.106;-2.088;2023-04-03T16:02:07;4.20;;;1.70;;
17079;SDS011;8655;57.106;-2.088;2023-04-03T16:04:34;2.57;;;1.50;;
17079;SDS011;8655;57.106;-2.088;2023-04-03T16:07:01;3.00;;;1.73;;
17079;SDS011;8655;57.106;-2.088;2023-04-03T16:09:27;4.83;;;1.83;;
17079;SDS011;8655;57.106;-2.088;2023-04-03T16:11:53;4.93;;;1.73;;
17079;SDS011;8655;57.106;-2.088;2023-04-03T16:14:19;4.57;;;1.50;;
17079;SDS011;8655;57.106;-2.088;2023-04-03T16:16:45;3.40;;;1.60;;
17079;SDS011;8655;57.106;-2.088;2023-04-03T16:19:11;4.30;;;1.70;;
17079;SDS011;8655;57.106;-2.088;2023-04-03T16:21:37;3.63;;;1.80;;
17079;SDS011;8655;57.106;-2.088;2023-04-03T16:24:03;4.03;;;1.77;;
17079;SDS011;8655;57.106;-2.088;2023-04-03T16:26:29;4.70;;;1.50;;
17079;SDS011;8655;57.106;-2.088;2023-04-03T16:28:55;3.17;;;1.57;;
17079;SDS011;8655;57.106;-2.088;2023-04-03T16:31:21;3.20;;;1.50;;
17079;SDS011;8655;57.106;-2.088;2023-04-03T16:33:47;4.57;;;1.60;;
17079;SDS011;8655;57.106;-2.088;2023-04-03T16:36:13;4.40;;;1.50;;
17079;SDS011;8655;57.106;-2.088;2023-04-03T16:38:39;4.27;;;1.70;;
17079;SDS011;8655;57.106;-2.088;2023-04-03T16:41:05;5.67;;;1.70;;
17079;SDS011;8655;57.106;-2.088;2023-04-03T16:43:31;7.00;;;2.00;;
17079;SDS011;8655;57.106;-2.088;2023-04-03T16:45:58;4.27;;;1.80;;
17079;SDS011;8655;57.106;-2.088;2023-04-03T16:48:24;3.80;;;1.47;;
17079;SDS011;8655;57.106;-2.088;2023-04-03T16:50:50;3.50;;;1.30;;
17079;SDS011;8655;57.106;-2.088;2023-04-03T16:53:18;2.97;;;1.40;;
17079;SDS011;8655;57.106;-2.088;2023-04-03T16:55:47;4.03;;;1.60;;
17079;SDS011;8655;57.106;-2.088;2023-04-03T16:58:13;6.17;;;1.70;;
17079;SDS011;8655;57.106;-2.088;2023-04-03T17:00:40;4.30;;;1.80;;
17079;SDS011;8655;57.106;-2.088;2023-04-03T17:03:06;2.17;;;1.30;;
17079;SDS011;8655;57.106;-2.088;2023-04-03T17:05:32;3.50;;;1.50;;
17079;SDS011;8655;57.106;-2.088;2023-04-03T17:07:58;4.20;;;1.50;;